Arietta, New York
Current Conditions -  °F | °C
As of 5:55 PM on Friday 28 Nov 2014 (Local Time) from KNY0 Reporting Station
Broken Clouds Broken Clouds  
Wind Chill: -13°   Ceiling: 2900
Heat Index: -7°   Visibility: 10mi
Dew Point: -9°   Wind: 10mph
Humidity: 81%   Direction: 270°W
Pressure: 30.16"   Gusts: NA
Location:  43.5975°N, 74.5775°W
Report Text: KNY0 282255Z AUTO 27009KT 10SM SCT019 BKN029 BKN038 M06/M09 A3016 RMK AO2 T10651092
Loading
Personal Weather Stations






























Interactive Weather Map New forecast layout! Learn more

10-Day Weather Forecast

Advertisements
Track Severe Weather on mobile